Terminal Aerodrome Forecast
Issued by NWS Grand Forks, ND

Home | Current Version | Previous Version | Graphics & Text | Print | Product List | Glossary On
Versions: 1 2 3 4 5 6 7 8 9 10 11 12 13 14 15 16 17
187
FTUS43 KFGF 161126
TAFFAR
TAF
KFAR 161126Z 1612/1712 12006KT P6SM OVC008
     FM161600 13015G23KT P6SM OVC010
     FM161900 14021G31KT P6SM BKN015
     FM170700 15014KT P6SM BKN020=

USA.gov is the U.S. government's official web portal to all federal, state and local government web resources and services.